sensor_id;sensor_type;location;lat;lon;timestamp;pressure;altitude;pressure_sealevel;temperature;humidity
41624;BME280;27319;50.306;18.926;2023-02-03T00:00:06;98762.56;;;1.10;84.94
41624;BME280;27319;50.306;18.926;2023-02-03T00:04:03;98764.28;;;0.97;85.02
41624;BME280;27319;50.306;18.926;2023-02-03T00:07:04;98756.91;;;1.02;85.02
41624;BME280;27319;50.306;18.926;2023-02-03T00:10:26;98761.00;;;0.94;84.91
41624;BME280;27319;50.306;18.926;2023-02-03T00:14:07;98762.50;;;0.98;85.12
41624;BME280;27319;50.306;18.926;2023-02-03T00:17:08;98761.44;;;1.00;85.49
41624;BME280;27319;50.306;18.926;2023-02-03T00:20:09;98760.91;;;0.95;84.83
41624;BME280;27319;50.306;18.926;2023-02-03T00:23:30;98759.69;;;0.87;85.00
41624;BME280;27319;50.306;18.926;2023-02-03T00:27:31;98774.97;;;0.82;85.37
41624;BME280;27319;50.306;18.926;2023-02-03T00:31:35;98777.78;;;0.79;84.52
41624;BME280;27319;50.306;18.926;2023-02-03T00:35:38;98777.31;;;0.86;85.42
41624;BME280;27319;50.306;18.926;2023-02-03T00:39:39;98781.84;;;0.84;85.21
41624;BME280;27319;50.306;18.926;2023-02-03T00:43:40;98787.03;;;0.86;84.23
41624;BME280;27319;50.306;18.926;2023-02-03T00:47:41;98789.88;;;0.83;84.24
41624;BME280;27319;50.306;18.926;2023-02-03T00:51:45;98790.34;;;0.75;84.59
41624;BME280;27319;50.306;18.926;2023-02-03T00:55:46;98783.94;;;0.79;84.08
41624;BME280;27319;50.306;18.926;2023-02-03T00:59:46;98792.78;;;0.64;83.79
41624;BME280;27319;50.306;18.926;2023-02-03T01:03:27;98775.44;;;0.74;84.97
41624;BME280;27319;50.306;18.926;2023-02-03T01:06:28;98779.78;;;0.75;84.33
41624;BME280;27319;50.306;18.926;2023-02-03T01:09:33;98779.59;;;0.64;83.62
41624;BME280;27319;50.306;18.926;2023-02-03T01:12:54;98767.81;;;0.70;84.74
41624;BME280;27319;50.306;18.926;2023-02-03T01:16:55;98769.59;;;0.55;83.39
41624;BME280;27319;50.306;18.926;2023-02-03T01:20:36;98772.81;;;0.60;84.82
41624;BME280;27319;50.306;18.926;2023-02-03T01:23:36;98772.41;;;0.80;83.91
41624;BME280;27319;50.306;18.926;2023-02-03T01:26:57;98762.22;;;0.74;84.11
41624;BME280;27319;50.306;18.926;2023-02-03T01:31:15;98776.44;;;0.86;84.04
41624;BME280;27319;50.306;18.926;2023-02-03T01:35:14;98764.31;;;0.69;83.84
41624;BME280;27319;50.306;18.926;2023-02-03T01:39:15;98764.13;;;0.72;83.85
41624;BME280;27319;50.306;18.926;2023-02-03T01:43:26;98778.19;;;0.59;83.33
41624;BME280;27319;50.306;18.926;2023-02-03T01:47:23;98766.66;;;0.46;83.14
41624;BME280;27319;50.306;18.926;2023-02-03T01:51:22;98757.63;;;0.64;83.26
41624;BME280;27319;50.306;18.926;2023-02-03T01:55:25;98756.19;;;0.44;82.26
41624;BME280;27319;50.306;18.926;2023-02-03T01:59:24;98762.06;;;0.49;83.62
41624;BME280;27319;50.306;18.926;2023-02-03T02:03:35;98752.59;;;0.45;82.78
41624;BME280;27319;50.306;18.926;2023-02-03T02:07:25;98752.25;;;0.37;83.12
41624;BME280;27319;50.306;18.926;2023-02-03T02:11:26;98743.75;;;0.46;84.54
41624;BME280;27319;50.306;18.926;2023-02-03T02:15:34;98741.84;;;0.48;83.96
41624;BME280;27319;50.306;18.926;2023-02-03T02:27:02;98731.00;;;0.39;83.86
41624;BME280;27319;50.306;18.926;2023-02-03T02:38:53;98711.09;;;0.05;83.51
41624;BME280;27319;50.306;18.926;2023-02-03T02:46:46;98695.44;;;0.02;84.17
41624;BME280;27319;50.306;18.926;2023-02-03T02:50:47;98687.53;;;0.30;85.39
41624;BME280;27319;50.306;18.926;2023-02-03T02:54:46;98688.50;;;0.15;84.82
41624;BME280;27319;50.306;18.926;2023-02-03T02:57:51;98689.44;;;0.28;84.99
41624;BME280;27319;50.306;18.926;2023-02-03T03:01:13;98694.34;;;0.20;85.55
41624;BME280;27319;50.306;18.926;2023-02-03T03:04:50;98695.06;;;0.36;85.56
41624;BME280;27319;50.306;18.926;2023-02-03T03:07:55;98699.16;;;0.42;85.54
41624;BME280;27319;50.306;18.926;2023-02-03T03:11:00;98716.75;;;0.41;84.73
41624;BME280;27319;50.306;18.926;2023-02-03T03:14:03;98723.66;;;0.30;84.39
41624;BME280;27319;50.306;18.926;2023-02-03T03:17:09;98715.94;;;0.41;84.51
41624;BME280;27319;50.306;18.926;2023-02-03T03:20:16;98721.66;;;0.19;84.92
41624;BME280;27319;50.306;18.926;2023-02-03T03:23:25;98703.38;;;0.30;84.79
41624;BME280;27319;50.306;18.926;2023-02-03T03:26:33;98712.81;;;0.20;85.67
41624;BME280;27319;50.306;18.926;2023-02-03T03:30:05;98700.38;;;0.22;85.37
41624;BME280;27319;50.306;18.926;2023-02-03T03:34:02;98697.91;;;0.33;85.67
41624;BME280;27319;50.306;18.926;2023-02-03T03:38:49;98684.81;;;0.32;85.90
41624;BME280;27319;50.306;18.926;2023-02-03T03:45:24;98659.53;;;0.42;85.54
41624;BME280;27319;50.306;18.926;2023-02-03T03:49:24;98648.97;;;0.42;84.78
41624;BME280;27319;50.306;18.926;2023-02-03T03:53:25;98648.41;;;0.23;86.70
41624;BME280;27319;50.306;18.926;2023-02-03T03:57:44;98649.09;;;0.26;87.47
41624;BME280;27319;50.306;18.926;2023-02-03T04:01:26;98646.53;;;0.25;87.11
41624;BME280;27319;50.306;18.926;2023-02-03T04:04:28;98640.69;;;0.20;86.17
41624;BME280;27319;50.306;18.926;2023-02-03T04:07:55;98647.38;;;0.25;87.01
41624;BME280;27319;50.306;18.926;2023-02-03T04:11:56;98644.91;;;0.36;86.21
41624;BME280;27319;50.306;18.926;2023-02-03T04:15:37;98633.25;;;0.26;84.72
41624;BME280;27319;50.306;18.926;2023-02-03T04:18:38;98641.72;;;0.17;85.53
41624;BME280;27319;50.306;18.926;2023-02-03T04:21:59;98634.38;;;0.08;86.00
41624;BME280;27319;50.306;18.926;2023-02-03T04:26:00;98628.75;;;0.14;86.29
41624;BME280;27319;50.306;18.926;2023-02-03T04:30:01;98627.22;;;0.10;86.53
41624;BME280;27319;50.306;18.926;2023-02-03T04:34:02;98615.56;;;0.14;86.54
41624;BME280;27319;50.306;18.926;2023-02-03T04:38:03;98618.84;;;0.18;86.82
41624;BME280;27319;50.306;18.926;2023-02-03T04:42:03;98614.41;;;0.04;86.94
41624;BME280;27319;50.306;18.926;2023-02-03T04:46:04;98604.97;;;0.00;86.86
41624;BME280;27319;50.306;18.926;2023-02-03T04:50:05;98593.59;;;0.00;86.46
41624;BME280;27319;50.306;18.926;2023-02-03T04:54:06;98596.25;;;0.00;86.31
41624;BME280;27319;50.306;18.926;2023-02-03T04:58:07;98593.97;;;0.08;87.40
41624;BME280;27319;50.306;18.926;2023-02-03T05:01:48;98590.38;;;0.09;87.70
41624;BME280;27319;50.306;18.926;2023-02-03T05:05:09;98570.22;;;0.08;87.41
41624;BME280;27319;50.306;18.926;2023-02-03T05:09:10;98561.94;;;0.00;87.00
41624;BME280;27319;50.306;18.926;2023-02-03T05:13:10;98544.31;;;0.00;88.13
41624;BME280;27319;50.306;18.926;2023-02-03T05:16:51;98533.00;;;-0.02;87.99
41624;BME280;27319;50.306;18.926;2023-02-03T05:19:52;98529.97;;;0.04;88.46
41624;BME280;27319;50.306;18.926;2023-02-03T05:23:13;98527.25;;;0.06;88.79
41624;BME280;27319;50.306;18.926;2023-02-03T05:27:01;98522.06;;;0.04;88.60
41624;BME280;27319;50.306;18.926;2023-02-03T05:31:02;98532.78;;;0.01;88.80
41624;BME280;27319;50.306;18.926;2023-02-03T05:35:03;98524.72;;;0.04;88.43
41624;BME280;27319;50.306;18.926;2023-02-03T05:39:04;98513.38;;;0.02;88.44
41624;BME280;27319;50.306;18.926;2023-02-03T05:43:05;98512.47;;;0.03;88.89
41624;BME280;27319;50.306;18.926;2023-02-03T05:47:06;98493.59;;;0.09;88.76
41624;BME280;27319;50.306;18.926;2023-02-03T05:51:07;98496.91;;;-0.01;88.50
41624;BME280;27319;50.306;18.926;2023-02-03T05:55:08;98488.53;;;-0.08;88.12
41624;BME280;27319;50.306;18.926;2023-02-03T05:59:08;98485.31;;;0.01;89.14
41624;BME280;27319;50.306;18.926;2023-02-03T06:02:54;98493.03;;;0.04;89.06
41624;BME280;27319;50.306;18.926;2023-02-03T06:06:15;98484.75;;;-0.04;88.83
41624;BME280;27319;50.306;18.926;2023-02-03T06:10:16;98473.41;;;0.08;88.79
41624;BME280;27319;50.306;18.926;2023-02-03T06:14:17;98471.16;;;0.02;88.75
41624;BME280;27319;50.306;18.926;2023-02-03T06:18:18;98456.28;;;0.01;88.07
41624;BME280;27319;50.306;18.926;2023-02-03T06:22:19;98454.28;;;0.05;88.96
41624;BME280;27319;50.306;18.926;2023-02-03T06:26:20;98452.59;;;0.04;88.89
41624;BME280;27319;50.306;18.926;2023-02-03T06:30:20;98461.28;;;0.06;87.32
41624;BME280;27319;50.306;18.926;2023-02-03T06:34:02;98451.25;;;0.11;87.04
41624;BME280;27319;50.306;18.926;2023-02-03T06:37:22;98441.09;;;0.05;87.01
41624;BME280;27319;50.306;18.926;2023-02-03T06:41:23;98437.63;;;0.04;87.58
41624;BME280;27319;50.306;18.926;2023-02-03T06:45:24;98434.34;;;0.01;87.60
41624;BME280;27319;50.306;18.926;2023-02-03T06:49:25;98417.47;;;0.03;86.89
41624;BME280;27319;50.306;18.926;2023-02-03T06:53:26;98409.03;;;0.11;85.94
41624;BME280;27319;50.306;18.926;2023-02-03T06:57:27;98419.72;;;0.09;85.14
41624;BME280;27319;50.306;18.926;2023-02-03T07:01:28;98410.38;;;0.04;83.97
41624;BME280;27319;50.306;18.926;2023-02-03T07:05:09;98409.25;;;0.08;84.92
41624;BME280;27319;50.306;18.926;2023-02-03T07:09:09;98400.00;;;0.15;84.47
41624;BME280;27319;50.306;18.926;2023-02-03T07:13:10;98378.06;;;0.14;83.58
41624;BME280;27319;50.306;18.926;2023-02-03T07:16:51;98380.47;;;0.17;83.23
41624;BME280;27319;50.306;18.926;2023-02-03T07:20:13;98373.69;;;0.13;82.39
41624;BME280;27319;50.306;18.926;2023-02-03T07:23:54;98357.56;;;0.18;81.98
41624;BME280;27319;50.306;18.926;2023-02-03T07:27:15;98373.28;;;0.19;84.11
41624;BME280;27319;50.306;18.926;2023-02-03T07:31:16;98362.69;;;0.33;82.53
41624;BME280;27319;50.306;18.926;2023-02-03T07:35:17;98352.84;;;0.35;83.06
41624;BME280;27319;50.306;18.926;2023-02-03T07:39:01;98361.31;;;0.40;82.69
41624;BME280;27319;50.306;18.926;2023-02-03T07:42:02;98357.44;;;0.19;82.22
41624;BME280;27319;50.306;18.926;2023-02-03T07:45:04;98357.19;;;0.36;81.74
41624;BME280;27319;50.306;18.926;2023-02-03T07:48:24;98341.16;;;0.39;81.68
41624;BME280;27319;50.306;18.926;2023-02-03T07:52:05;98343.38;;;0.45;80.95
41624;BME280;27319;50.306;18.926;2023-02-03T07:55:26;98326.56;;;0.34;81.53
41624;BME280;27319;50.306;18.926;2023-02-03T07:59:27;98317.81;;;0.58;81.46
41624;BME280;27319;50.306;18.926;2023-02-03T08:03:08;98304.63;;;0.58;79.88
41624;BME280;27319;50.306;18.926;2023-02-03T08:06:28;98309.06;;;0.45;81.36
41624;BME280;27319;50.306;18.926;2023-02-03T08:10:29;98297.75;;;0.43;81.41
41624;BME280;27319;50.306;18.926;2023-02-03T08:14:10;98289.72;;;0.57;81.07
41624;BME280;27319;50.306;18.926;2023-02-03T08:17:31;98278.97;;;0.60;80.11
41624;BME280;27319;50.306;18.926;2023-02-03T08:21:12;98277.56;;;0.55;80.76
41624;BME280;27319;50.306;18.926;2023-02-03T08:24:13;98279.59;;;0.64;80.10
41624;BME280;27319;50.306;18.926;2023-02-03T08:27:16;98282.97;;;0.66;80.37
41624;BME280;27319;50.306;18.926;2023-02-03T08:30:17;98272.94;;;0.58;80.52
41624;BME280;27319;50.306;18.926;2023-02-03T08:33:19;98266.59;;;0.73;80.53
41624;BME280;27319;50.306;18.926;2023-02-03T08:36:39;98260.78;;;0.81;80.41
41624;BME280;27319;50.306;18.926;2023-02-03T08:40:40;98247.13;;;0.87;80.88
41624;BME280;27319;50.306;18.926;2023-02-03T08:44:41;98246.28;;;0.86;82.15
41624;BME280;27319;50.306;18.926;2023-02-03T08:48:42;98242.69;;;0.87;84.45
41624;BME280;27319;50.306;18.926;2023-02-03T08:52:43;98242.16;;;0.82;85.56
41624;BME280;27319;50.306;18.926;2023-02-03T08:56:43;98246.81;;;0.91;87.69
41624;BME280;27319;50.306;18.926;2023-02-03T09:00:44;98238.94;;;0.66;89.70
41624;BME280;27319;50.306;18.926;2023-02-03T09:04:25;98225.50;;;0.69;90.04
41624;BME280;27319;50.306;18.926;2023-02-03T09:07:46;98215.97;;;0.67;91.62
41624;BME280;27319;50.306;18.926;2023-02-03T09:11:47;98211.56;;;0.67;90.89
41624;BME280;27319;50.306;18.926;2023-02-03T09:15:48;98193.06;;;0.67;91.60
41624;BME280;27319;50.306;18.926;2023-02-03T09:19:49;98172.94;;;0.77;92.39
41624;BME280;27319;50.306;18.926;2023-02-03T09:23:50;98168.00;;;0.73;93.07
41624;BME280;27319;50.306;18.926;2023-02-03T09:27:50;98161.91;;;0.72;92.37
41624;BME280;27319;50.306;18.926;2023-02-03T09:31:51;98156.09;;;0.67;92.47
41624;BME280;27319;50.306;18.926;2023-02-03T09:35:52;98140.13;;;0.69;93.55
41624;BME280;27319;50.306;18.926;2023-02-03T09:39:52;98121.53;;;0.70;94.32
41624;BME280;27319;50.306;18.926;2023-02-03T09:47:42;98086.13;;;0.73;95.21
41624;BME280;27319;50.306;18.926;2023-02-03T09:51:47;98081.59;;;0.75;95.40
41624;BME280;27319;50.306;18.926;2023-02-03T09:55:46;98064.25;;;0.83;95.16
41624;BME280;27319;50.306;18.926;2023-02-03T09:59:48;98046.50;;;0.73;96.21
41624;BME280;27319;50.306;18.926;2023-02-03T10:03:44;98036.56;;;0.76;96.15
41624;BME280;27319;50.306;18.926;2023-02-03T10:06:47;98013.31;;;0.81;96.33
41624;BME280;27319;50.306;18.926;2023-02-03T10:21:02;97978.47;;;0.76;96.20
41624;BME280;27319;50.306;18.926;2023-02-03T10:25:04;97975.88;;;0.87;96.55
41624;BME280;27319;50.306;18.926;2023-02-03T10:29:07;97957.47;;;0.86;96.62
41624;BME280;27319;50.306;18.926;2023-02-03T10:33:12;97949.66;;;0.73;97.54
41624;BME280;27319;50.306;18.926;2023-02-03T10:41:02;97921.81;;;0.80;96.72
41624;BME280;27319;50.306;18.926;2023-02-03T10:45:02;97912.84;;;0.94;97.00
41624;BME280;27319;50.306;18.926;2023-02-03T10:48:43;97908.53;;;0.93;96.97
41624;BME280;27319;50.306;18.926;2023-02-03T10:52:07;97879.31;;;0.94;97.33
41624;BME280;27319;50.306;18.926;2023-02-03T10:56:09;97878.13;;;0.87;98.14
41624;BME280;27319;50.306;18.926;2023-02-03T11:03:44;97847.50;;;0.85;98.49
41624;BME280;27319;50.306;18.926;2023-02-03T11:07:23;97845.72;;;0.85;97.70
41624;BME280;27319;50.306;18.926;2023-02-03T11:11:26;97831.16;;;0.80;98.45
41624;BME280;27319;50.306;18.926;2023-02-03T11:15:26;97804.28;;;0.86;98.85
41624;BME280;27319;50.306;18.926;2023-02-03T11:22:56;97776.06;;;0.86;98.35
41624;BME280;27319;50.306;18.926;2023-02-03T11:27:13;97764.06;;;0.93;98.95
41624;BME280;27319;50.306;18.926;2023-02-03T11:31:15;97743.66;;;0.84;99.30
41624;BME280;27319;50.306;18.926;2023-02-03T11:35:24;97732.72;;;1.00;98.47
41624;BME280;27319;50.306;18.926;2023-02-03T11:39:28;97724.31;;;0.95;98.62
41624;BME280;27319;50.306;18.926;2023-02-03T11:43:31;97704.03;;;0.95;98.85
41624;BME280;27319;50.306;18.926;2023-02-03T11:47:31;97698.25;;;1.01;99.06
41624;BME280;27319;50.306;18.926;2023-02-03T11:54:52;97660.19;;;1.04;98.51
41624;BME280;27319;50.306;18.926;2023-02-03T12:23:59;97584.09;;;1.18;100.00
41624;BME280;27319;50.306;18.926;2023-02-03T12:30:41;97557.75;;;1.28;100.00
41624;BME280;27319;50.306;18.926;2023-02-03T12:33:53;97555.47;;;1.23;100.00
41624;BME280;27319;50.306;18.926;2023-02-03T12:37:12;97535.44;;;1.21;100.00
41624;BME280;27319;50.306;18.926;2023-02-03T12:44:31;97513.78;;;1.27;100.00
41624;BME280;27319;50.306;18.926;2023-02-03T12:52:21;97500.19;;;1.31;100.00
41624;BME280;27319;50.306;18.926;2023-02-03T12:56:29;97491.34;;;1.21;100.00
41624;BME280;27319;50.306;18.926;2023-02-03T13:03:48;97485.59;;;1.16;100.00
41624;BME280;27319;50.306;18.926;2023-02-03T13:07:14;97474.44;;;1.13;100.00
41624;BME280;27319;50.306;18.926;2023-02-03T13:14:40;97440.69;;;1.16;100.00
41624;BME280;27319;50.306;18.926;2023-02-03T13:18:46;97429.88;;;1.19;100.00
41624;BME280;27319;50.306;18.926;2023-02-03T13:22:46;97418.00;;;1.14;100.00
41624;BME280;27319;50.306;18.926;2023-02-03T13:38:06;97369.66;;;1.23;100.00
41624;BME280;27319;50.306;18.926;2023-02-03T13:42:20;97364.50;;;1.21;100.00
41624;BME280;27319;50.306;18.926;2023-02-03T13:50:04;97335.19;;;1.24;100.00
41624;BME280;27319;50.306;18.926;2023-02-03T13:54:07;97343.09;;;1.24;100.00
41624;BME280;27319;50.306;18.926;2023-02-03T13:58:17;97340.09;;;1.38;100.00
41624;BME280;27319;50.306;18.926;2023-02-03T14:05:44;97310.13;;;1.28;100.00
41624;BME280;27319;50.306;18.926;2023-02-03T14:12:36;97304.41;;;1.23;100.00
41624;BME280;27319;50.306;18.926;2023-02-03T14:23:37;97267.56;;;1.22;100.00
41624;BME280;27319;50.306;18.926;2023-02-03T14:27:37;97264.66;;;1.34;100.00
41624;BME280;27319;50.306;18.926;2023-02-03T14:32:02;97251.72;;;1.31;100.00
41624;BME280;27319;50.306;18.926;2023-02-03T14:35:42;97245.59;;;1.40;100.00
41624;BME280;27319;50.306;18.926;2023-02-03T14:40:11;97241.03;;;1.33;100.00
41624;BME280;27319;50.306;18.926;2023-02-03T14:44:15;97234.78;;;1.34;100.00
41624;BME280;27319;50.306;18.926;2023-02-03T14:55:46;97263.63;;;1.56;100.00
41624;BME280;27319;50.306;18.926;2023-02-03T14:59:47;97264.00;;;1.61;100.00
41624;BME280;27319;50.306;18.926;2023-02-03T15:03:27;97276.53;;;1.49;100.00
41624;BME280;27319;50.306;18.926;2023-02-03T15:06:41;97276.78;;;1.46;100.00
41624;BME280;27319;50.306;18.926;2023-02-03T15:09:44;97283.06;;;1.45;100.00
41624;BME280;27319;50.306;18.926;2023-02-03T15:12:55;97268.75;;;1.57;100.00
41624;BME280;27319;50.306;18.926;2023-02-03T15:16:00;97290.84;;;1.47;100.00
41624;BME280;27319;50.306;18.926;2023-02-03T15:19:23;97269.84;;;1.55;100.00
41624;BME280;27319;50.306;18.926;2023-02-03T15:23:26;97272.78;;;1.61;100.00
41624;BME280;27319;50.306;18.926;2023-02-03T15:27:27;97249.97;;;1.60;100.00
41624;BME280;27319;50.306;18.926;2023-02-03T15:35:06;97261.41;;;1.80;100.00
41624;BME280;27319;50.306;18.926;2023-02-03T15:47:47;97267.38;;;1.82;100.00
41624;BME280;27319;50.306;18.926;2023-02-03T15:55:46;97290.94;;;1.94;100.00
41624;BME280;27319;50.306;18.926;2023-02-03T15:59:45;97287.19;;;1.87;100.00
41624;BME280;27319;50.306;18.926;2023-02-03T16:03:43;97282.44;;;2.19;100.00
41624;BME280;27319;50.306;18.926;2023-02-03T16:07:11;97290.09;;;2.22;100.00
41624;BME280;27319;50.306;18.926;2023-02-03T16:12:00;97302.63;;;2.39;100.00
41624;BME280;27319;50.306;18.926;2023-02-03T16:15:20;97305.13;;;2.41;100.00
41624;BME280;27319;50.306;18.926;2023-02-03T16:19:22;97313.34;;;2.47;100.00
41624;BME280;27319;50.306;18.926;2023-02-03T16:23:16;97311.81;;;2.45;100.00
41624;BME280;27319;50.306;18.926;2023-02-03T16:26:38;97319.06;;;2.52;100.00
41624;BME280;27319;50.306;18.926;2023-02-03T16:30:39;97299.97;;;2.58;100.00
41624;BME280;27319;50.306;18.926;2023-02-03T16:34:38;97295.75;;;2.65;100.00
41624;BME280;27319;50.306;18.926;2023-02-03T16:38:42;97298.41;;;2.65;100.00
41624;BME280;27319;50.306;18.926;2023-02-03T16:42:37;97304.69;;;2.55;100.00
41624;BME280;27319;50.306;18.926;2023-02-03T16:46:36;97310.09;;;2.72;100.00
41624;BME280;27319;50.306;18.926;2023-02-03T16:50:35;97324.75;;;2.67;100.00
41624;BME280;27319;50.306;18.926;2023-02-03T16:54:36;97320.84;;;2.71;100.00
41624;BME280;27319;50.306;18.926;2023-02-03T16:58:37;97323.50;;;2.61;100.00
41624;BME280;27319;50.306;18.926;2023-02-03T17:02:18;97329.75;;;2.70;100.00
41624;BME280;27319;50.306;18.926;2023-02-03T17:05:39;97322.09;;;2.76;100.00
41624;BME280;27319;50.306;18.926;2023-02-03T17:09:39;97329.50;;;2.73;100.00
41624;BME280;27319;50.306;18.926;2023-02-03T17:13:40;97341.75;;;2.74;100.00
41624;BME280;27319;50.306;18.926;2023-02-03T17:17:41;97337.31;;;2.74;100.00
41624;BME280;27319;50.306;18.926;2023-02-03T17:21:42;97336.84;;;2.88;100.00
41624;BME280;27319;50.306;18.926;2023-02-03T17:25:44;97346.22;;;2.73;100.00
41624;BME280;27319;50.306;18.926;2023-02-03T17:29:43;97338.91;;;2.94;100.00
41624;BME280;27319;50.306;18.926;2023-02-03T17:33:45;97339.22;;;2.91;100.00
41624;BME280;27319;50.306;18.926;2023-02-03T17:37:45;97355.81;;;2.93;100.00
41624;BME280;27319;50.306;18.926;2023-02-03T17:41:46;97364.19;;;2.89;100.00
41624;BME280;27319;50.306;18.926;2023-02-03T17:45:46;97369.72;;;2.95;100.00
41624;BME280;27319;50.306;18.926;2023-02-03T17:49:47;97369.88;;;3.03;100.00
41624;BME280;27319;50.306;18.926;2023-02-03T17:53:48;97364.56;;;3.03;100.00
41624;BME280;27319;50.306;18.926;2023-02-03T17:57:49;97383.81;;;3.05;100.00
41624;BME280;27319;50.306;18.926;2023-02-03T18:01:49;97384.69;;;2.96;100.00
41624;BME280;27319;50.306;18.926;2023-02-03T18:05:38;97398.63;;;2.98;100.00
41624;BME280;27319;50.306;18.926;2023-02-03T18:09:39;97410.88;;;2.99;100.00
41624;BME280;27319;50.306;18.926;2023-02-03T18:13:41;97402.78;;;3.10;100.00
41624;BME280;27319;50.306;18.926;2023-02-03T18:17:41;97403.63;;;3.01;100.00
41624;BME280;27319;50.306;18.926;2023-02-03T18:21:42;97414.22;;;3.01;100.00
41624;BME280;27319;50.306;18.926;2023-02-03T18:25:42;97405.88;;;2.96;100.00
41624;BME280;27319;50.306;18.926;2023-02-03T18:29:44;97417.59;;;2.94;100.00
41624;BME280;27319;50.306;18.926;2023-02-03T18:33:44;97420.25;;;3.03;100.00
41624;BME280;27319;50.306;18.926;2023-02-03T18:37:45;97435.72;;;2.98;100.00
41624;BME280;27319;50.306;18.926;2023-02-03T18:41:46;97434.06;;;2.97;100.00
41624;BME280;27319;50.306;18.926;2023-02-03T18:45:47;97429.03;;;2.94;100.00
41624;BME280;27319;50.306;18.926;2023-02-03T18:49:47;97434.88;;;2.88;100.00
41624;BME280;27319;50.306;18.926;2023-02-03T18:53:48;97445.06;;;2.93;100.00
41624;BME280;27319;50.306;18.926;2023-02-03T18:57:49;97450.91;;;2.87;100.00
41624;BME280;27319;50.306;18.926;2023-02-03T19:01:50;97454.13;;;2.71;100.00
41624;BME280;27319;50.306;18.926;2023-02-03T19:05:39;97453.56;;;2.77;100.00
41624;BME280;27319;50.306;18.926;2023-02-03T19:09:39;97449.13;;;2.68;100.00
41624;BME280;27319;50.306;18.926;2023-02-03T19:13:40;97446.06;;;2.63;100.00
41624;BME280;27319;50.306;18.926;2023-02-03T19:17:41;97454.97;;;2.62;100.00
41624;BME280;27319;50.306;18.926;2023-02-03T19:21:41;97459.97;;;2.56;100.00
41624;BME280;27319;50.306;18.926;2023-02-03T19:25:42;97456.09;;;2.50;100.00
41624;BME280;27319;50.306;18.926;2023-02-03T19:29:43;97460.22;;;2.43;100.00
41624;BME280;27319;50.306;18.926;2023-02-03T19:33:44;97449.06;;;2.30;100.00
41624;BME280;27319;50.306;18.926;2023-02-03T19:37:46;97447.94;;;2.23;100.00
41624;BME280;27319;50.306;18.926;2023-02-03T19:41:47;97454.91;;;2.24;100.00
41624;BME280;27319;50.306;18.926;2023-02-03T19:45:48;97465.50;;;2.24;100.00
41624;BME280;27319;50.306;18.926;2023-02-03T19:49:49;97447.97;;;2.42;100.00
41624;BME280;27319;50.306;18.926;2023-02-03T19:53:50;97447.72;;;2.36;100.00
41624;BME280;27319;50.306;18.926;2023-02-03T19:57:50;97457.16;;;2.38;100.00
41624;BME280;27319;50.306;18.926;2023-02-03T20:01:51;97454.38;;;2.49;100.00
41624;BME280;27319;50.306;18.926;2023-02-03T20:05:35;97449.09;;;2.40;100.00
41624;BME280;27319;50.306;18.926;2023-02-03T20:09:37;97460.53;;;2.40;100.00
41624;BME280;27319;50.306;18.926;2023-02-03T20:13:37;97457.59;;;2.43;100.00
41624;BME280;27319;50.306;18.926;2023-02-03T20:17:38;97455.34;;;2.39;100.00
41624;BME280;27319;50.306;18.926;2023-02-03T20:21:40;97445.88;;;2.46;100.00
41624;BME280;27319;50.306;18.926;2023-02-03T20:25:41;97437.69;;;2.49;100.00
41624;BME280;27319;50.306;18.926;2023-02-03T20:29:42;97434.03;;;2.69;100.00
41624;BME280;27319;50.306;18.926;2023-02-03T20:33:42;97431.69;;;2.66;100.00
41624;BME280;27319;50.306;18.926;2023-02-03T20:37:43;97438.78;;;2.56;100.00
41624;BME280;27319;50.306;18.926;2023-02-03T20:41:44;97431.81;;;2.64;100.00
41624;BME280;27319;50.306;18.926;2023-02-03T20:45:45;97431.81;;;2.64;100.00
41624;BME280;27319;50.306;18.926;2023-02-03T20:49:46;97435.28;;;2.55;100.00
41624;BME280;27319;50.306;18.926;2023-02-03T20:53:47;97438.09;;;2.63;100.00
41624;BME280;27319;50.306;18.926;2023-02-03T20:57:48;97439.34;;;2.69;100.00
41624;BME280;27319;50.306;18.926;2023-02-03T21:01:48;97449.13;;;2.59;100.00
41624;BME280;27319;50.306;18.926;2023-02-03T21:05:23;97452.16;;;2.64;100.00
41624;BME280;27319;50.306;18.926;2023-02-03T21:08:26;97441.44;;;2.65;100.00
41624;BME280;27319;50.306;18.926;2023-02-03T21:11:28;97446.19;;;2.71;100.00
41624;BME280;27319;50.306;18.926;2023-02-03T21:14:36;97437.69;;;2.68;100.00
41624;BME280;27319;50.306;18.926;2023-02-03T21:17:38;97438.53;;;2.68;100.00
41624;BME280;27319;50.306;18.926;2023-02-03T21:21:00;97446.59;;;2.76;100.00
41624;BME280;27319;50.306;18.926;2023-02-03T21:25:00;97443.28;;;2.74;100.00
41624;BME280;27319;50.306;18.926;2023-02-03T21:29:00;97435.47;;;2.73;100.00
41624;BME280;27319;50.306;18.926;2023-02-03T21:33:05;97437.13;;;2.83;100.00
41624;BME280;27319;50.306;18.926;2023-02-03T21:40:52;97431.69;;;2.85;100.00
41624;BME280;27319;50.306;18.926;2023-02-03T21:44:33;97432.22;;;2.88;100.00
41624;BME280;27319;50.306;18.926;2023-02-03T21:47:38;97435.19;;;2.85;100.00
41624;BME280;27319;50.306;18.926;2023-02-03T21:51:03;97439.06;;;2.81;100.00
41624;BME280;27319;50.306;18.926;2023-02-03T21:55:00;97437.97;;;2.93;100.00
41624;BME280;27319;50.306;18.926;2023-02-03T21:59:00;97436.00;;;2.86;100.00
41624;BME280;27319;50.306;18.926;2023-02-03T22:02:54;97433.06;;;2.98;100.00
41624;BME280;27319;50.306;18.926;2023-02-03T22:06:23;97421.22;;;3.02;100.00
41624;BME280;27319;50.306;18.926;2023-02-03T22:09:25;97416.75;;;2.93;100.00
41624;BME280;27319;50.306;18.926;2023-02-03T22:12:46;97426.78;;;2.99;100.00
41624;BME280;27319;50.306;18.926;2023-02-03T22:16:47;97424.69;;;2.93;100.00
41624;BME280;27319;50.306;18.926;2023-02-03T22:20:28;97408.66;;;3.04;100.00
41624;BME280;27319;50.306;18.926;2023-02-03T22:23:49;97413.97;;;2.95;100.00
41624;BME280;27319;50.306;18.926;2023-02-03T22:27:49;97419.69;;;3.00;100.00
41624;BME280;27319;50.306;18.926;2023-02-03T22:31:50;97414.50;;;3.08;100.00